sensor_id;sensor_type;location;lat;lon;timestamp;pressure;altitude;pressure_sealevel;temperature;humidity
47716;BME280;33476;50.984;3.538;2024-03-23T00:55:31;101306.38;;;11.36;69.81
47716;BME280;33476;50.984;3.538;2024-03-23T00:57:56;101304.69;;;11.35;70.14
47716;BME280;33476;50.984;3.538;2024-03-23T01:00:22;101301.06;;;11.37;70.06
47716;BME280;33476;50.984;3.538;2024-03-23T01:02:47;101297.47;;;11.40;69.78
47716;BME280;33476;50.984;3.538;2024-03-23T01:05:12;101297.34;;;11.43;69.64
47716;BME280;33476;50.984;3.538;2024-03-23T01:07:38;101292.13;;;11.43;69.70
47716;BME280;33476;50.984;3.538;2024-03-23T01:10:03;101289.50;;;11.43;69.74
47716;BME280;33476;50.984;3.538;2024-03-23T01:12:29;101299.75;;;11.47;69.63
47716;BME280;33476;50.984;3.538;2024-03-23T01:14:54;101295.38;;;11.48;69.53
47716;BME280;33476;50.984;3.538;2024-03-23T01:17:20;101291.81;;;11.49;69.51
47716;BME280;33476;50.984;3.538;2024-03-23T01:19:45;101290.22;;;11.46;69.23
47716;BME280;33476;50.984;3.538;2024-03-23T01:22:13;101297.13;;;11.47;69.14
47716;BME280;33476;50.984;3.538;2024-03-23T01:24:38;101297.06;;;11.49;69.03
47716;BME280;33476;50.984;3.538;2024-03-23T01:27:04;101292.81;;;11.46;68.89
47716;BME280;33476;50.984;3.538;2024-03-23T01:29:29;101280.59;;;11.47;68.80
47716;BME280;33476;50.984;3.538;2024-03-23T01:31:55;101289.28;;;11.47;68.61
47716;BME280;33476;50.984;3.538;2024-03-23T01:34:20;101277.13;;;11.46;68.54
47716;BME280;33476;50.984;3.538;2024-03-23T01:36:46;101282.50;;;11.43;68.53
47716;BME280;33476;50.984;3.538;2024-03-23T01:39:12;101280.94;;;11.39;68.32
47716;BME280;33476;50.984;3.538;2024-03-23T01:41:37;101286.22;;;11.38;68.00
47716;BME280;33476;50.984;3.538;2024-03-23T01:44:07;101285.44;;;11.36;67.79
47716;BME280;33476;50.984;3.538;2024-03-23T01:46:33;101287.28;;;11.34;67.79
47716;BME280;33476;50.984;3.538;2024-03-23T01:48:59;101289.00;;;11.35;67.56
47716;BME280;33476;50.984;3.538;2024-03-23T01:51:26;101287.22;;;11.35;67.24
47716;BME280;33476;50.984;3.538;2024-03-23T01:53:52;101289.91;;;11.34;67.39
47716;BME280;33476;50.984;3.538;2024-03-23T01:56:18;101284.72;;;11.32;67.02
47716;BME280;33476;50.984;3.538;2024-03-23T01:58:43;101283.75;;;11.35;66.53
47716;BME280;33476;50.984;3.538;2024-03-23T02:01:08;101284.69;;;11.34;66.59
47716;BME280;33476;50.984;3.538;2024-03-23T02:03:34;101284.72;;;11.32;66.15
47716;BME280;33476;50.984;3.538;2024-03-23T02:05:59;101287.41;;;11.31;66.42
47716;BME280;33476;50.984;3.538;2024-03-23T02:08:25;101290.25;;;11.26;66.11
47716;BME280;33476;50.984;3.538;2024-03-23T02:10:53;101279.81;;;11.24;65.92
47716;BME280;33476;50.984;3.538;2024-03-23T02:13:18;101277.16;;;11.26;65.80
47716;BME280;33476;50.984;3.538;2024-03-23T02:15:44;101276.34;;;11.24;65.64
47716;BME280;33476;50.984;3.538;2024-03-23T02:18:10;101274.66;;;11.23;65.66
47716;BME280;33476;50.984;3.538;2024-03-23T02:20:36;101271.34;;;11.19;65.81
47716;BME280;33476;50.984;3.538;2024-03-23T02:23:02;101275.72;;;11.19;65.56
47716;BME280;33476;50.984;3.538;2024-03-23T02:25:28;101274.81;;;11.20;65.35
47716;BME280;33476;50.984;3.538;2024-03-23T02:27:53;101275.72;;;11.19;65.06
47716;BME280;33476;50.984;3.538;2024-03-23T02:30:24;101276.66;;;11.18;65.17
47716;BME280;33476;50.984;3.538;2024-03-23T02:32:49;101278.34;;;11.19;64.99
47716;BME280;33476;50.984;3.538;2024-03-23T02:35:14;101274.03;;;11.18;64.67
47716;BME280;33476;50.984;3.538;2024-03-23T02:37:40;101271.41;;;11.18;65.05
47716;BME280;33476;50.984;3.538;2024-03-23T02:40:05;101269.66;;;11.18;64.65
47716;BME280;33476;50.984;3.538;2024-03-23T02:42:31;101271.28;;;11.21;64.73
47716;BME280;33476;50.984;3.538;2024-03-23T02:44:57;101271.41;;;11.18;64.55
47716;BME280;33476;50.984;3.538;2024-03-23T02:47:23;101263.63;;;11.16;64.56
47716;BME280;33476;50.984;3.538;2024-03-23T02:49:48;101264.53;;;11.15;64.73
47716;BME280;33476;50.984;3.538;2024-03-23T02:52:13;101267.28;;;11.12;64.31
47716;BME280;33476;50.984;3.538;2024-03-23T02:54:39;101258.72;;;11.09;64.61
47716;BME280;33476;50.984;3.538;2024-03-23T02:57:04;101258.78;;;11.07;64.54
47716;BME280;33476;50.984;3.538;2024-03-23T02:59:30;101259.69;;;11.06;64.51
47716;BME280;33476;50.984;3.538;2024-03-23T03:01:55;101262.38;;;11.05;64.58
47716;BME280;33476;50.984;3.538;2024-03-23T03:04:21;101259.00;;;11.03;64.56
47716;BME280;33476;50.984;3.538;2024-03-23T03:06:49;101264.47;;;10.96;64.56
47716;BME280;33476;50.984;3.538;2024-03-23T03:09:14;101265.41;;;10.95;64.56
47716;BME280;33476;50.984;3.538;2024-03-23T03:11:40;101267.22;;;10.93;64.68
47716;BME280;33476;50.984;3.538;2024-03-23T03:14:05;101260.31;;;10.92;64.42
47716;BME280;33476;50.984;3.538;2024-03-23T03:16:33;101264.66;;;10.92;64.52
47716;BME280;33476;50.984;3.538;2024-03-23T03:18:58;101264.72;;;10.90;64.19
47716;BME280;33476;50.984;3.538;2024-03-23T03:21:24;101257.75;;;10.91;64.02
47716;BME280;33476;50.984;3.538;2024-03-23T03:23:49;101262.13;;;10.90;63.96
47716;BME280;33476;50.984;3.538;2024-03-23T03:26:16;101269.97;;;10.90;63.79
47716;BME280;33476;50.984;3.538;2024-03-23T03:28:42;101278.72;;;10.89;63.58
47716;BME280;33476;50.984;3.538;2024-03-23T03:31:09;101285.63;;;10.90;63.46
47716;BME280;33476;50.984;3.538;2024-03-23T03:33:34;101279.38;;;10.94;63.52
47716;BME280;33476;50.984;3.538;2024-03-23T03:35:59;101276.00;;;10.92;63.63
47716;BME280;33476;50.984;3.538;2024-03-23T03:38:25;101276.84;;;10.93;63.33
47716;BME280;33476;50.984;3.538;2024-03-23T03:40:50;101276.88;;;10.91;63.05
47716;BME280;33476;50.984;3.538;2024-03-23T03:43:16;101282.25;;;10.88;62.93
47716;BME280;33476;50.984;3.538;2024-03-23T03:45:41;101281.56;;;10.83;62.93
47716;BME280;33476;50.984;3.538;2024-03-23T03:48:07;101282.56;;;10.81;62.91
47716;BME280;33476;50.984;3.538;2024-03-23T03:50:32;101285.19;;;10.81;62.81
47716;BME280;33476;50.984;3.538;2024-03-23T03:52:57;101287.00;;;10.79;62.78
47716;BME280;33476;50.984;3.538;2024-03-23T03:55:23;101280.16;;;10.76;62.71
47716;BME280;33476;50.984;3.538;2024-03-23T03:57:48;101271.50;;;10.74;62.63
47716;BME280;33476;50.984;3.538;2024-03-23T04:00:14;101281.25;;;10.71;62.78
47716;BME280;33476;50.984;3.538;2024-03-23T04:02:40;101274.25;;;10.71;62.78
47716;BME280;33476;50.984;3.538;2024-03-23T04:05:06;101270.72;;;10.72;62.72
47716;BME280;33476;50.984;3.538;2024-03-23T04:07:31;101271.44;;;10.76;62.67
47716;BME280;33476;50.984;3.538;2024-03-23T04:09:57;101276.88;;;10.71;62.74
47716;BME280;33476;50.984;3.538;2024-03-23T04:12:23;101274.41;;;10.68;62.77
47716;BME280;33476;50.984;3.538;2024-03-23T04:14:49;101267.41;;;10.68;62.84
47716;BME280;33476;50.984;3.538;2024-03-23T04:17:14;101269.19;;;10.68;62.96
47716;BME280;33476;50.984;3.538;2024-03-23T04:19:39;101267.50;;;10.65;62.77
47716;BME280;33476;50.984;3.538;2024-03-23T04:22:05;101269.22;;;10.66;62.80
47716;BME280;33476;50.984;3.538;2024-03-23T04:24:30;101268.25;;;10.69;62.83
47716;BME280;33476;50.984;3.538;2024-03-23T04:26:55;101276.09;;;10.69;62.57
47716;BME280;33476;50.984;3.538;2024-03-23T04:29:21;101269.94;;;10.70;62.49
47716;BME280;33476;50.984;3.538;2024-03-23T04:31:46;101270.88;;;10.69;62.54
47716;BME280;33476;50.984;3.538;2024-03-23T04:34:12;101273.53;;;10.67;62.47
47716;BME280;33476;50.984;3.538;2024-03-23T04:36:38;101272.03;;;10.62;62.42
47716;BME280;33476;50.984;3.538;2024-03-23T04:39:03;101277.41;;;10.57;62.12
47716;BME280;33476;50.984;3.538;2024-03-23T04:41:28;101278.47;;;10.53;62.34
47716;BME280;33476;50.984;3.538;2024-03-23T04:43:55;101283.03;;;10.48;62.73
47716;BME280;33476;50.984;3.538;2024-03-23T04:46:20;101274.53;;;10.43;62.69
47716;BME280;33476;50.984;3.538;2024-03-23T04:48:46;101275.38;;;10.44;62.70
47716;BME280;33476;50.984;3.538;2024-03-23T04:51:20;101272.88;;;10.40;62.67
47716;BME280;33476;50.984;3.538;2024-03-23T04:53:46;101277.25;;;10.40;62.65
47716;BME280;33476;50.984;3.538;2024-03-23T04:56:11;101282.47;;;10.40;62.65
47716;BME280;33476;50.984;3.538;2024-03-23T04:58:37;101270.19;;;10.42;62.84
47716;BME280;33476;50.984;3.538;2024-03-23T05:01:02;101275.38;;;10.44;62.69
47716;BME280;33476;50.984;3.538;2024-03-23T05:03:28;101277.94;;;10.45;62.56
47716;BME280;33476;50.984;3.538;2024-03-23T05:05:54;101284.06;;;10.44;62.57
47716;BME280;33476;50.984;3.538;2024-03-23T05:08:19;101274.41;;;10.46;62.64
47716;BME280;33476;50.984;3.538;2024-03-23T05:10:44;101273.63;;;10.44;62.79
47716;BME280;33476;50.984;3.538;2024-03-23T05:13:11;101277.94;;;10.45;62.67
47716;BME280;33476;50.984;3.538;2024-03-23T05:15:37;101274.72;;;10.38;63.00
47716;BME280;33476;50.984;3.538;2024-03-23T05:18:03;101265.03;;;10.40;63.07
47716;BME280;33476;50.984;3.538;2024-03-23T05:20:30;101265.78;;;10.44;63.03
47716;BME280;33476;50.984;3.538;2024-03-23T05:22:55;101265.78;;;10.44;62.86
47716;BME280;33476;50.984;3.538;2024-03-23T05:25:21;101272.78;;;10.44;63.20
47716;BME280;33476;50.984;3.538;2024-03-23T05:27:46;101273.56;;;10.46;62.93
47716;BME280;33476;50.984;3.538;2024-03-23T05:30:12;101267.41;;;10.47;63.20
47716;BME280;33476;50.984;3.538;2024-03-23T05:32:38;101272.78;;;10.44;63.31
47716;BME280;33476;50.984;3.538;2024-03-23T05:35:06;101266.81;;;10.40;63.42
47716;BME280;33476;50.984;3.538;2024-03-23T05:37:32;101271.25;;;10.38;63.47
47716;BME280;33476;50.984;3.538;2024-03-23T05:39:59;101280.91;;;10.36;63.56
47716;BME280;33476;50.984;3.538;2024-03-23T05:42:24;101275.63;;;10.37;63.62
47716;BME280;33476;50.984;3.538;2024-03-23T05:44:50;101273.94;;;10.36;63.66
47716;BME280;33476;50.984;3.538;2024-03-23T05:47:15;101280.22;;;10.31;63.71
47716;BME280;33476;50.984;3.538;2024-03-23T05:49:45;101278.53;;;10.30;63.88
47716;BME280;33476;50.984;3.538;2024-03-23T05:52:11;101280.16;;;10.32;63.67
47716;BME280;33476;50.984;3.538;2024-03-23T05:54:37;101305.56;;;10.29;63.78
47716;BME280;33476;50.984;3.538;2024-03-23T05:57:02;101308.34;;;10.24;64.29
47716;BME280;33476;50.984;3.538;2024-03-23T05:59:28;101306.63;;;10.23;64.24
47716;BME280;33476;50.984;3.538;2024-03-23T06:01:54;101299.81;;;10.19;64.24
47716;BME280;33476;50.984;3.538;2024-03-23T06:04:19;101292.22;;;10.13;64.41
47716;BME280;33476;50.984;3.538;2024-03-23T06:06:45;101287.91;;;10.12;64.04
47716;BME280;33476;50.984;3.538;2024-03-23T06:09:10;101292.34;;;10.10;64.13
47716;BME280;33476;50.984;3.538;2024-03-23T06:11:36;101288.88;;;10.09;64.00
47716;BME280;33476;50.984;3.538;2024-03-23T06:14:01;101301.94;;;10.09;63.92
47716;BME280;33476;50.984;3.538;2024-03-23T06:16:27;101293.41;;;10.04;64.13
47716;BME280;33476;50.984;3.538;2024-03-23T06:18:53;101297.00;;;10.02;64.11
47716;BME280;33476;50.984;3.538;2024-03-23T06:21:20;101302.16;;;10.03;63.94
47716;BME280;33476;50.984;3.538;2024-03-23T06:23:45;101303.84;;;10.04;63.87
47716;BME280;33476;50.984;3.538;2024-03-23T06:26:19;101302.59;;;10.14;63.73
47716;BME280;33476;50.984;3.538;2024-03-23T06:28:46;101303.78;;;10.06;63.43
47716;BME280;33476;50.984;3.538;2024-03-23T06:31:11;101306.69;;;9.98;63.87
47716;BME280;33476;50.984;3.538;2024-03-23T06:33:37;101304.16;;;9.97;63.90
47716;BME280;33476;50.984;3.538;2024-03-23T06:36:07;101304.28;;;9.94;64.09
47716;BME280;33476;50.984;3.538;2024-03-23T06:38:33;101308.22;;;10.04;63.86
47716;BME280;33476;50.984;3.538;2024-03-23T06:41:02;101302.22;;;10.02;63.36
47716;BME280;33476;50.984;3.538;2024-03-23T06:43:27;101307.59;;;9.97;63.75
47716;BME280;33476;50.984;3.538;2024-03-23T06:45:56;101313.66;;;9.98;63.67
47716;BME280;33476;50.984;3.538;2024-03-23T06:48:21;101311.56;;;10.07;63.55
47716;BME280;33476;50.984;3.538;2024-03-23T06:50:48;101308.22;;;10.04;63.83
47716;BME280;33476;50.984;3.538;2024-03-23T06:53:14;101312.47;;;10.06;64.09
47716;BME280;33476;50.984;3.538;2024-03-23T06:55:39;101319.44;;;10.06;63.87
47716;BME280;33476;50.984;3.538;2024-03-23T06:58:05;101319.44;;;10.06;64.06
47716;BME280;33476;50.984;3.538;2024-03-23T07:00:31;101318.47;;;10.08;64.11
47716;BME280;33476;50.984;3.538;2024-03-23T07:02:57;101321.94;;;10.09;64.35
47716;BME280;33476;50.984;3.538;2024-03-23T07:05:23;101319.16;;;10.13;64.18
47716;BME280;33476;50.984;3.538;2024-03-23T07:07:48;101318.31;;;10.13;64.23
47716;BME280;33476;50.984;3.538;2024-03-23T07:10:14;101323.75;;;10.07;64.34
47716;BME280;33476;50.984;3.538;2024-03-23T07:12:39;101316.00;;;10.05;64.65
47716;BME280;33476;50.984;3.538;2024-03-23T07:15:05;101323.66;;;10.10;64.57
47716;BME280;33476;50.984;3.538;2024-03-23T07:17:30;101319.28;;;10.10;64.31
47716;BME280;33476;50.984;3.538;2024-03-23T07:19:57;101322.47;;;10.19;64.24
47716;BME280;33476;50.984;3.538;2024-03-23T07:22:24;101324.94;;;10.22;64.04
47716;BME280;33476;50.984;3.538;2024-03-23T07:24:49;101305.78;;;10.23;64.36
47716;BME280;33476;50.984;3.538;2024-03-23T07:27:15;101323.78;;;10.30;63.94
47716;BME280;33476;50.984;3.538;2024-03-23T07:29:40;101315.03;;;10.31;63.96
47716;BME280;33476;50.984;3.538;2024-03-23T07:32:05;101312.34;;;10.33;63.95
47716;BME280;33476;50.984;3.538;2024-03-23T07:34:31;101315.63;;;10.38;64.12
47716;BME280;33476;50.984;3.538;2024-03-23T07:36:56;101319.66;;;10.47;63.81
47716;BME280;33476;50.984;3.538;2024-03-23T07:39:22;101316.81;;;10.53;63.79
47716;BME280;33476;50.984;3.538;2024-03-23T07:41:47;101312.91;;;10.63;63.74
47716;BME280;33476;50.984;3.538;2024-03-23T07:44:12;101318.66;;;10.71;63.51
47716;BME280;33476;50.984;3.538;2024-03-23T07:46:38;101319.06;;;10.82;63.38
47716;BME280;33476;50.984;3.538;2024-03-23T07:49:06;101315.31;;;10.89;62.90
47716;BME280;33476;50.984;3.538;2024-03-23T07:51:32;101318.34;;;11.01;63.08
47716;BME280;33476;50.984;3.538;2024-03-23T07:53:59;101312.75;;;11.08;62.86
47716;BME280;33476;50.984;3.538;2024-03-23T07:56:24;101311.47;;;11.18;62.23
47716;BME280;33476;50.984;3.538;2024-03-23T07:58:49;101310.50;;;11.21;62.20
47716;BME280;33476;50.984;3.538;2024-03-23T08:01:16;101302.25;;;11.30;62.32
47716;BME280;33476;50.984;3.538;2024-03-23T08:03:43;101304.28;;;11.44;62.09
47716;BME280;33476;50.984;3.538;2024-03-23T08:06:12;101296.13;;;11.50;61.68
47716;BME280;33476;50.984;3.538;2024-03-23T08:08:39;101299.34;;;11.57;61.45
47716;BME280;33476;50.984;3.538;2024-03-23T08:11:05;101297.16;;;11.66;61.15
47716;BME280;33476;50.984;3.538;2024-03-23T08:13:31;101304.66;;;11.74;60.90
47716;BME280;33476;50.984;3.538;2024-03-23T08:16:01;101304.81;;;11.71;60.32
47716;BME280;33476;50.984;3.538;2024-03-23T08:18:27;101302.00;;;11.75;60.43
47716;BME280;33476;50.984;3.538;2024-03-23T08:20:59;101304.47;;;11.78;60.05
47716;BME280;33476;50.984;3.538;2024-03-23T08:23:27;101306.50;;;11.72;60.03
47716;BME280;33476;50.984;3.538;2024-03-23T08:26:00;101301.63;;;11.85;59.89
47716;BME280;33476;50.984;3.538;2024-03-23T08:28:26;101301.78;;;12.00;59.57
47716;BME280;33476;50.984;3.538;2024-03-23T08:30:52;101302.19;;;12.10;58.82
47716;BME280;33476;50.984;3.538;2024-03-23T08:33:18;101310.31;;;12.23;58.69
47716;BME280;33476;50.984;3.538;2024-03-23T08:35:56;101308.69;;;12.20;57.79
47716;BME280;33476;50.984;3.538;2024-03-23T08:38:25;101309.34;;;12.25;57.66
47716;BME280;33476;50.984;3.538;2024-03-23T08:41:07;101302.84;;;12.32;57.27
47716;BME280;33476;50.984;3.538;2024-03-23T08:43:35;101306.88;;;12.40;57.12
47716;BME280;33476;50.984;3.538;2024-03-23T08:46:08;101296.88;;;12.48;57.40
47716;BME280;33476;50.984;3.538;2024-03-23T08:48:38;101298.47;;;12.52;56.94
47716;BME280;33476;50.984;3.538;2024-03-23T08:51:05;101295.59;;;12.56;56.78
47716;BME280;33476;50.984;3.538;2024-03-23T08:53:32;101310.66;;;12.70;56.23
47716;BME280;33476;50.984;3.538;2024-03-23T08:55:58;101303.56;;;12.72;56.05
47716;BME280;33476;50.984;3.538;2024-03-23T08:58:25;101297.00;;;12.81;55.78
47716;BME280;33476;50.984;3.538;2024-03-23T09:00:51;101302.34;;;12.79;55.54
47716;BME280;33476;50.984;3.538;2024-03-23T09:03:17;101302.88;;;12.86;55.87
47716;BME280;33476;50.984;3.538;2024-03-23T09:05:42;101308.81;;;12.89;55.02
47716;BME280;33476;50.984;3.538;2024-03-23T09:08:08;101311.59;;;12.86;55.15
47716;BME280;33476;50.984;3.538;2024-03-23T09:10:41;101321.44;;;12.81;55.22
47716;BME280;33476;50.984;3.538;2024-03-23T09:13:06;101326.03;;;12.95;54.97
47716;BME280;33476;50.984;3.538;2024-03-23T09:15:36;101328.19;;;13.04;54.80
47716;BME280;33476;50.984;3.538;2024-03-23T09:18:03;101317.09;;;13.16;54.71
47716;BME280;33476;50.984;3.538;2024-03-23T09:20:29;101319.84;;;13.13;54.38
47716;BME280;33476;50.984;3.538;2024-03-23T09:22:54;101318.63;;;13.03;54.30
47716;BME280;33476;50.984;3.538;2024-03-23T09:25:20;101328.47;;;12.98;53.92
47716;BME280;33476;50.984;3.538;2024-03-23T09:27:48;101310.59;;;12.89;54.28
47716;BME280;33476;50.984;3.538;2024-03-23T09:30:14;101321.78;;;13.10;54.05
47716;BME280;33476;50.984;3.538;2024-03-23T09:32:46;101321.41;;;13.00;53.70
47716;BME280;33476;50.984;3.538;2024-03-23T09:35:11;101313.75;;;12.96;53.24
47716;BME280;33476;50.984;3.538;2024-03-23T09:37:40;101317.69;;;13.04;53.50
47716;BME280;33476;50.984;3.538;2024-03-23T09:40:09;101317.19;;;13.32;53.10
47716;BME280;33476;50.984;3.538;2024-03-23T09:42:35;101318.16;;;13.47;52.93
47716;BME280;33476;50.984;3.538;2024-03-23T09:45:00;101312.81;;;13.48;53.51
47716;BME280;33476;50.984;3.538;2024-03-23T09:47:26;101308.53;;;13.30;53.52
47716;BME280;33476;50.984;3.538;2024-03-23T09:49:52;101321.19;;;13.22;54.30
47716;BME280;33476;50.984;3.538;2024-03-23T09:52:18;101306.75;;;13.13;53.79
47716;BME280;33476;50.984;3.538;2024-03-23T09:54:43;101305.91;;;12.96;53.76
47716;BME280;33476;50.984;3.538;2024-03-23T09:57:09;101302.19;;;12.82;53.91
47716;BME280;33476;50.984;3.538;2024-03-23T09:59:34;101303.06;;;12.83;53.93
47716;BME280;33476;50.984;3.538;2024-03-23T10:02:01;101298.09;;;13.11;53.41
47716;BME280;33476;50.984;3.538;2024-03-23T10:04:40;101291.47;;;13.39;52.38
47716;BME280;33476;50.984;3.538;2024-03-23T10:07:18;101285.94;;;13.61;52.07
47716;BME280;33476;50.984;3.538;2024-03-23T10:09:45;101293.44;;;13.84;50.92
47716;BME280;33476;50.984;3.538;2024-03-23T10:12:11;101289.88;;;13.85;50.69
47716;BME280;33476;50.984;3.538;2024-03-23T10:14:42;101293.88;;;13.92;50.45
47716;BME280;33476;50.984;3.538;2024-03-23T10:17:22;101294.25;;;13.69;50.55
47716;BME280;33476;50.984;3.538;2024-03-23T10:19:53;101294.22;;;13.53;50.51
47716;BME280;33476;50.984;3.538;2024-03-23T10:22:20;101302.13;;;13.36;50.87
47716;BME280;33476;50.984;3.538;2024-03-23T10:24:46;101285.41;;;13.21;51.23
47716;BME280;33476;50.984;3.538;2024-03-23T10:27:16;101292.47;;;13.19;51.27
47716;BME280;33476;50.984;3.538;2024-03-23T10:29:49;101283.53;;;13.06;50.90
47716;BME280;33476;50.984;3.538;2024-03-23T10:32:16;101297.25;;;12.93;50.83
47716;BME280;33476;50.984;3.538;2024-03-23T10:34:41;101281.75;;;12.89;51.22
47716;BME280;33476;50.984;3.538;2024-03-23T10:37:07;101278.75;;;12.79;50.43
47716;BME280;33476;50.984;3.538;2024-03-23T10:39:35;101278.06;;;12.76;50.80
47716;BME280;33476;50.984;3.538;2024-03-23T10:42:02;101277.69;;;12.66;50.37
47716;BME280;33476;50.984;3.538;2024-03-23T10:44:29;101278.28;;;12.71;50.43
47716;BME280;33476;50.984;3.538;2024-03-23T10:46:56;101280.78;;;12.91;50.83
47716;BME280;33476;50.984;3.538;2024-03-23T10:49:35;101271.72;;;13.14;50.42
47716;BME280;33476;50.984;3.538;2024-03-23T10:52:02;101267.00;;;13.38;50.34
47716;BME280;33476;50.984;3.538;2024-03-23T10:54:29;101260.06;;;13.37;49.76
47716;BME280;33476;50.984;3.538;2024-03-23T10:57:00;101267.50;;;13.29;49.23
47716;BME280;33476;50.984;3.538;2024-03-23T10:59:27;101265.88;;;13.09;49.25
47716;BME280;33476;50.984;3.538;2024-03-23T11:01:59;101260.88;;;12.87;50.22
47716;BME280;33476;50.984;3.538;2024-03-23T11:04:36;101257.31;;;12.88;50.95
47716;BME280;33476;50.984;3.538;2024-03-23T11:09:55;101250.91;;;12.94;50.41
47716;BME280;33476;50.984;3.538;2024-03-23T11:14:54;101246.81;;;13.23;50.55
47716;BME280;33476;50.984;3.538;2024-03-23T11:17:24;101245.47;;;13.32;50.30
47716;BME280;33476;50.984;3.538;2024-03-23T11:19:59;101244.91;;;13.27;50.00
47716;BME280;33476;50.984;3.538;2024-03-23T11:25:18;101235.94;;;13.13;50.19
47716;BME280;33476;50.984;3.538;2024-03-23T11:27:46;101240.66;;;13.24;49.59
47716;BME280;33476;50.984;3.538;2024-03-23T11:30:28;101222.03;;;13.29;49.39
47716;BME280;33476;50.984;3.538;2024-03-23T11:32:57;101229.53;;;13.52;48.16
47716;BME280;33476;50.984;3.538;2024-03-23T11:35:37;101226.59;;;13.58;47.88
47716;BME280;33476;50.984;3.538;2024-03-23T11:38:04;101215.84;;;13.78;47.25
47716;BME280;33476;50.984;3.538;2024-03-23T11:40:30;101218.28;;;13.82;46.76
47716;BME280;33476;50.984;3.538;2024-03-23T11:42:58;101217.44;;;13.81;46.89
47716;BME280;33476;50.984;3.538;2024-03-23T11:45:24;101207.03;;;13.80;46.78
47716;BME280;33476;50.984;3.538;2024-03-23T11:48:04;101201.28;;;13.57;46.85
47716;BME280;33476;50.984;3.538;2024-03-23T11:50:30;101207.97;;;13.63;47.94
47716;BME280;33476;50.984;3.538;2024-03-23T11:55:55;101205.31;;;13.47;48.77
47716;BME280;33476;50.984;3.538;2024-03-23T11:58:22;101199.34;;;13.61;49.16
47716;BME280;33476;50.984;3.538;2024-03-23T12:00:52;101196.19;;;13.54;48.85
47716;BME280;33476;50.984;3.538;2024-03-23T12:03:19;101195.34;;;13.54;48.72
47716;BME280;33476;50.984;3.538;2024-03-23T12:05:50;101198.47;;;13.44;48.20
47716;BME280;33476;50.984;3.538;2024-03-23T12:08:21;101197.41;;;13.31;48.06
47716;BME280;33476;50.984;3.538;2024-03-23T12:10:51;101199.81;;;13.18;48.96
47716;BME280;33476;50.984;3.538;2024-03-23T12:13:18;101199.97;;;13.15;49.19
47716;BME280;33476;50.984;3.538;2024-03-23T12:15:45;101205.78;;;13.05;49.28
47716;BME280;33476;50.984;3.538;2024-03-23T12:18:11;101205.59;;;12.92;49.82
47716;BME280;33476;50.984;3.538;2024-03-23T12:20:37;101200.34;;;12.92;50.45
47716;BME280;33476;50.984;3.538;2024-03-23T12:23:12;101188.84;;;12.94;50.73
47716;BME280;33476;50.984;3.538;2024-03-23T12:25:39;101183.38;;;13.15;51.40
47716;BME280;33476;50.984;3.538;2024-03-23T12:28:05;101180.50;;;13.37;51.34
47716;BME280;33476;50.984;3.538;2024-03-23T12:30:40;101165.19;;;13.45;50.90
47716;BME280;33476;50.984;3.538;2024-03-23T12:33:06;101168.34;;;13.52;50.68
47716;BME280;33476;50.984;3.538;2024-03-23T12:35:32;101165.81;;;13.50;50.80
47716;BME280;33476;50.984;3.538;2024-03-23T12:37:58;101169.59;;;13.44;50.79
47716;BME280;33476;50.984;3.538;2024-03-23T12:40:23;101168.00;;;13.42;51.21
47716;BME280;33476;50.984;3.538;2024-03-23T12:42:49;101164.13;;;13.49;51.11
47716;BME280;33476;50.984;3.538;2024-03-23T12:45:15;101154.91;;;13.58;50.24
47716;BME280;33476;50.984;3.538;2024-03-23T12:47:40;101159.53;;;13.53;49.71
47716;BME280;33476;50.984;3.538;2024-03-23T12:50:06;101144.72;;;13.52;49.57
47716;BME280;33476;50.984;3.538;2024-03-23T12:52:32;101156.06;;;13.68;49.09
47716;BME280;33476;50.984;3.538;2024-03-23T12:54:58;101151.41;;;13.73;48.87
47716;BME280;33476;50.984;3.538;2024-03-23T12:57:24;101146.59;;;13.65;48.57
47716;BME280;33476;50.984;3.538;2024-03-23T12:59:51;101145.81;;;13.63;48.33
47716;BME280;33476;50.984;3.538;2024-03-23T13:02:19;101140.75;;;13.76;48.40
47716;BME280;33476;50.984;3.538;2024-03-23T13:04:45;101127.28;;;13.82;47.52
47716;BME280;33476;50.984;3.538;2024-03-23T13:07:11;101132.44;;;13.68;46.90
47716;BME280;33476;50.984;3.538;2024-03-23T13:09:36;101146.84;;;13.61;47.16
47716;BME280;33476;50.984;3.538;2024-03-23T13:12:01;101129.66;;;13.71;46.99
47716;BME280;33476;50.984;3.538;2024-03-23T13:14:27;101132.06;;;13.90;46.94
47716;BME280;33476;50.984;3.538;2024-03-23T13:16:52;101126.03;;;14.03;46.51
47716;BME280;33476;50.984;3.538;2024-03-23T13:19:18;101121.53;;;14.05;46.18
47716;BME280;33476;50.984;3.538;2024-03-23T13:21:44;101114.34;;;14.09;45.72
47716;BME280;33476;50.984;3.538;2024-03-23T13:24:10;101117.91;;;14.08;45.59
47716;BME280;33476;50.984;3.538;2024-03-23T13:26:35;101113.31;;;14.12;45.06
47716;BME280;33476;50.984;3.538;2024-03-23T13:29:01;101105.00;;;14.19;44.91
47716;BME280;33476;50.984;3.538;2024-03-23T13:31:26;101101.25;;;14.23;45.18
47716;BME280;33476;50.984;3.538;2024-03-23T13:33:51;101102.91;;;14.40;45.38
47716;BME280;33476;50.984;3.538;2024-03-23T13:36:17;101079.84;;;14.45;44.48
47716;BME280;33476;50.984;3.538;2024-03-23T13:38:42;101080.84;;;14.43;44.00
47716;BME280;33476;50.984;3.538;2024-03-23T13:41:07;101077.28;;;14.44;44.33
47716;BME280;33476;50.984;3.538;2024-03-23T13:43:34;101082.84;;;14.53;44.33
47716;BME280;33476;50.984;3.538;2024-03-23T13:45:59;101076.19;;;14.62;44.51
47716;BME280;33476;50.984;3.538;2024-03-23T13:48:27;101078.44;;;14.68;44.35
47716;BME280;33476;50.984;3.538;2024-03-23T13:51:04;101073.94;;;14.70;43.97
47716;BME280;33476;50.984;3.538;2024-03-23T13:53:30;101078.63;;;14.79;44.00